createdAt,value
2023-04-25T00:00:08.502Z,9.32
2023-04-25T00:01:08.497Z,9.43
2023-04-25T00:02:08.533Z,9.32
2023-04-25T00:03:08.570Z,9.34
2023-04-25T00:04:08.664Z,9.34
2023-04-25T00:05:08.558Z,9.36
2023-04-25T00:06:08.443Z,9.36
2023-04-25T00:07:08.437Z,9.39
2023-04-25T00:08:08.432Z,9.39
2023-04-25T00:09:08.441Z,9.34
2023-04-25T00:10:08.404Z,9.44
2023-04-25T00:11:08.407Z,9.41
2023-04-25T00:12:08.395Z,9.46
2023-04-25T00:13:08.384Z,9.40
2023-04-25T00:14:08.377Z,9.40
2023-04-25T00:15:08.381Z,9.43
2023-04-25T00:16:08.382Z,9.50
2023-04-25T00:17:08.349Z,9.47
2023-04-25T00:18:08.367Z,9.46
2023-04-25T00:19:08.599Z,9.47
2023-04-25T00:20:08.322Z,9.48
2023-04-25T00:21:08.314Z,9.40
2023-04-25T00:22:08.312Z,9.41
2023-04-25T00:23:08.315Z,9.41
2023-04-25T00:24:08.315Z,9.43
2023-04-25T00:25:08.289Z,9.55
2023-04-25T00:26:08.278Z,9.41
2023-04-25T00:27:08.266Z,9.39
2023-04-25T00:28:08.259Z,9.44
2023-04-25T00:29:08.249Z,9.46
2023-04-25T00:30:08.240Z,9.50
2023-04-25T00:31:08.301Z,9.46
2023-04-25T00:32:08.253Z,9.44
2023-04-25T00:33:08.237Z,9.48
2023-04-25T00:34:08.202Z,9.43
2023-04-25T00:35:08.204Z,9.41
2023-04-25T00:36:08.189Z,9.39
2023-04-25T00:37:08.183Z,9.48
2023-04-25T00:38:08.177Z,9.44
2023-04-25T00:39:08.156Z,9.43
2023-04-25T00:40:08.156Z,9.43
2023-04-25T00:41:08.141Z,9.37
2023-04-25T00:42:08.136Z,9.40
2023-04-25T00:43:08.121Z,9.34
2023-04-25T00:44:08.128Z,9.36
2023-04-25T00:45:08.110Z,9.34
2023-04-25T00:46:08.093Z,9.41
2023-04-25T00:47:08.164Z,9.37
2023-04-25T00:48:08.315Z,9.34
2023-04-25T00:49:08.088Z,9.36
2023-04-25T00:50:08.068Z,9.37
2023-04-25T00:51:08.050Z,9.32
2023-04-25T00:52:08.042Z,9.34
2023-04-25T00:53:08.041Z,9.32
2023-04-25T00:54:08.065Z,9.34
2023-04-25T00:55:08.016Z,9.25
2023-04-25T00:56:08.023Z,9.31
2023-04-25T00:57:08.020Z,9.29
2023-04-25T00:58:08.004Z,9.21
2023-04-25T00:59:07.981Z,9.19
2023-04-25T01:00:07.972Z,9.16
2023-04-25T01:01:08.051Z,9.23
2023-04-25T01:02:07.974Z,9.18
2023-04-25T01:03:08.183Z,9.22
2023-04-25T01:04:08.091Z,9.23
2023-04-25T01:05:07.928Z,9.25
2023-04-25T01:06:07.918Z,9.21
2023-04-25T01:07:07.921Z,9.19
2023-04-25T01:08:07.907Z,9.25
2023-04-25T01:09:07.902Z,9.25
2023-04-25T01:10:07.883Z,9.18
2023-04-25T01:11:07.928Z,9.28
2023-04-25T01:12:07.865Z,9.23
2023-04-25T01:13:07.861Z,9.21
2023-04-25T01:14:07.847Z,9.22
2023-04-25T01:15:07.838Z,9.23
2023-04-25T01:16:07.881Z,9.28
2023-04-25T01:17:07.938Z,9.21
2023-04-25T01:18:07.852Z,9.28
2023-04-25T01:19:07.818Z,9.19
2023-04-25T01:20:07.795Z,9.25
2023-04-25T01:21:07.798Z,9.25
2023-04-25T01:22:07.775Z,9.23
2023-04-25T01:23:07.768Z,9.23
2023-04-25T01:24:07.755Z,9.21
2023-04-25T01:25:07.750Z,9.22
2023-04-25T01:26:07.752Z,9.25
2023-04-25T01:27:07.731Z,9.16
2023-04-25T01:28:07.729Z,9.13
2023-04-25T01:29:07.712Z,9.19
2023-04-25T01:30:07.724Z,9.23
2023-04-25T01:31:07.698Z,9.22
2023-04-25T01:32:07.733Z,9.21
2023-04-25T01:33:07.747Z,9.18
2023-04-25T01:34:07.673Z,9.16
2023-04-25T01:35:07.661Z,9.23
2023-04-25T01:36:07.708Z,9.22
2023-04-25T01:37:07.648Z,9.18
2023-04-25T01:38:07.635Z,9.14
2023-04-25T01:39:07.625Z,9.14
2023-04-25T01:40:07.626Z,9.14
2023-04-25T01:41:07.609Z,9.13
2023-04-25T01:42:07.655Z,9.13
2023-04-25T01:43:07.593Z,9.16
2023-04-25T01:44:07.581Z,9.14
2023-04-25T01:45:07.577Z,9.14
2023-04-25T01:46:07.595Z,9.14
2023-04-25T01:47:07.647Z,9.16
2023-04-25T01:48:07.577Z,9.10
2023-04-25T01:49:07.539Z,9.06
2023-04-25T01:50:07.531Z,9.04
2023-04-25T01:51:07.533Z,9.13
2023-04-25T01:52:07.508Z,9.08
2023-04-25T01:53:07.503Z,9.16
2023-04-25T01:54:07.492Z,9.18
2023-04-25T01:55:07.484Z,9.13
2023-04-25T01:56:07.481Z,9.19
2023-04-25T01:57:07.471Z,9.11
2023-04-25T01:58:07.455Z,9.16
2023-04-25T01:59:07.448Z,9.11
2023-04-25T02:00:07.437Z,9.06
2023-04-25T02:01:07.438Z,9.08
2023-04-25T02:02:07.419Z,9.04
2023-04-25T02:03:07.534Z,9.13
2023-04-25T02:04:07.718Z,9.02
2023-04-25T02:05:07.393Z,9.02
2023-04-25T02:06:07.393Z,9.14
2023-04-25T02:07:07.393Z,9.13
2023-04-25T02:08:07.382Z,9.11
2023-04-25T02:09:07.360Z,9.04
2023-04-25T02:10:07.359Z,9.00
2023-04-25T02:11:07.345Z,9.02
2023-04-25T02:12:07.351Z,9.11
2023-04-25T02:13:07.354Z,9.06
2023-04-25T02:14:07.338Z,9.03
2023-04-25T02:15:07.332Z,9.03
2023-04-25T02:16:07.369Z,8.99
2023-04-25T02:17:07.336Z,9.00
2023-04-25T02:18:07.414Z,9.11
2023-04-25T02:19:07.270Z,9.10
2023-04-25T02:20:07.264Z,9.08
2023-04-25T02:21:07.267Z,8.97
2023-04-25T02:22:07.244Z,8.97
2023-04-25T02:23:07.241Z,9.03
2023-04-25T02:24:07.225Z,9.00
2023-04-25T02:25:07.216Z,9.06
2023-04-25T02:26:07.212Z,8.88
2023-04-25T02:27:07.206Z,8.87
2023-04-25T02:28:07.192Z,8.91
2023-04-25T02:29:07.181Z,8.95
2023-04-25T02:30:07.171Z,8.92
2023-04-25T02:31:07.175Z,8.97
2023-04-25T02:32:07.156Z,9.00
2023-04-25T02:33:07.167Z,8.94
2023-04-25T02:34:07.134Z,8.95
2023-04-25T02:35:07.137Z,8.97
2023-04-25T02:36:07.117Z,8.89
2023-04-25T02:37:07.119Z,8.92
2023-04-25T02:38:07.099Z,9.02
2023-04-25T02:39:07.091Z,8.89
2023-04-25T02:40:07.113Z,8.97
2023-04-25T02:41:07.076Z,9.03
2023-04-25T02:42:07.119Z,8.95
2023-04-25T02:43:07.056Z,8.95
2023-04-25T02:44:07.061Z,8.87
2023-04-25T02:45:07.050Z,9.02
2023-04-25T02:46:07.057Z,8.99
2023-04-25T02:47:07.052Z,8.97
2023-04-25T02:48:07.034Z,8.97
2023-04-25T02:49:06.999Z,8.97
2023-04-25T02:50:06.993Z,8.91
2023-04-25T02:51:07.038Z,8.87
2023-04-25T02:52:07.075Z,8.99
2023-04-25T02:53:07.006Z,8.97
2023-04-25T02:54:06.961Z,8.87
2023-04-25T02:55:06.944Z,8.94
2023-04-25T02:56:06.940Z,8.95
2023-04-25T02:57:06.933Z,8.88
2023-04-25T02:58:06.916Z,8.92
2023-04-25T02:59:06.916Z,8.95
2023-04-25T03:00:06.925Z,8.91
2023-04-25T03:01:06.925Z,8.94
2023-04-25T03:02:06.884Z,8.95
2023-04-25T03:03:06.942Z,8.95
2023-04-25T03:04:06.890Z,8.89
2023-04-25T03:05:06.908Z,8.99
2023-04-25T03:06:06.845Z,8.87
2023-04-25T03:07:06.836Z,8.95
2023-04-25T03:08:06.847Z,8.87
2023-04-25T03:09:06.817Z,8.94
2023-04-25T03:10:06.807Z,8.91
2023-04-25T03:11:06.800Z,8.97
2023-04-25T03:12:06.792Z,8.88
2023-04-25T03:13:06.786Z,8.97
2023-04-25T03:14:06.778Z,8.91
2023-04-25T03:15:06.761Z,8.91
2023-04-25T03:16:06.795Z,8.92
2023-04-25T03:17:06.749Z,8.94
2023-04-25T03:18:06.833Z,8.92
2023-04-25T03:19:06.726Z,8.92
2023-04-25T03:20:06.719Z,9.02
2023-04-25T03:21:06.712Z,8.85
2023-04-25T03:22:06.711Z,8.95
2023-04-25T03:23:06.686Z,9.02
2023-04-25T03:24:06.690Z,8.88
2023-04-25T03:25:06.672Z,8.92
2023-04-25T03:26:06.664Z,8.95
2023-04-25T03:27:06.666Z,8.94
2023-04-25T03:28:06.654Z,9.02
2023-04-25T03:29:06.643Z,8.92
2023-04-25T03:30:06.634Z,8.99
2023-04-25T03:31:06.621Z,8.95
2023-04-25T03:32:06.664Z,8.95
2023-04-25T03:33:06.636Z,8.95
2023-04-25T03:34:06.597Z,8.91
2023-04-25T03:35:06.589Z,9.00
2023-04-25T03:36:06.595Z,8.92
2023-04-25T03:37:06.569Z,8.91
2023-04-25T03:38:06.560Z,8.95
2023-04-25T03:39:06.555Z,8.95
2023-04-25T03:40:06.545Z,8.92
2023-04-25T03:41:06.619Z,8.91
2023-04-25T03:42:06.517Z,8.91
2023-04-25T03:43:06.518Z,8.92
2023-04-25T03:44:06.503Z,8.92
2023-04-25T03:45:06.492Z,8.89
2023-04-25T03:46:06.522Z,8.92
2023-04-25T03:47:06.479Z,8.88
2023-04-25T03:48:06.512Z,8.88
2023-04-25T03:49:06.458Z,8.87
2023-04-25T03:50:06.453Z,8.87
2023-04-25T03:51:06.517Z,8.87
2023-04-25T03:52:06.434Z,8.82
2023-04-25T03:53:06.424Z,8.91
2023-04-25T03:54:06.420Z,8.89
2023-04-25T03:55:06.403Z,8.82
2023-04-25T03:56:06.420Z,8.82
2023-04-25T03:57:06.406Z,8.82
2023-04-25T03:58:06.386Z,8.92
2023-04-25T03:59:06.369Z,8.81
2023-04-25T04:00:06.361Z,8.71
2023-04-25T04:01:06.354Z,8.69
2023-04-25T04:02:06.396Z,8.69
2023-04-25T04:03:06.474Z,8.81
2023-04-25T04:04:06.607Z,8.73
2023-04-25T04:05:06.441Z,8.66
2023-04-25T04:06:06.299Z,8.82
2023-04-25T04:07:06.290Z,8.84
2023-04-25T04:08:06.289Z,8.70
2023-04-25T04:09:06.282Z,8.78
2023-04-25T04:10:06.275Z,8.79
2023-04-25T04:11:06.262Z,8.85
2023-04-25T04:12:06.256Z,8.82
2023-04-25T04:13:06.245Z,8.88
2023-04-25T04:14:06.230Z,8.73
2023-04-25T04:15:06.221Z,8.84
2023-04-25T04:16:06.242Z,8.81
2023-04-25T04:17:06.204Z,8.82
2023-04-25T04:18:06.211Z,8.81
2023-04-25T04:19:06.186Z,8.89
2023-04-25T04:20:06.176Z,8.82
2023-04-25T04:21:06.200Z,8.99
2023-04-25T04:22:06.178Z,8.82
2023-04-25T04:23:06.150Z,8.87
2023-04-25T04:24:06.144Z,8.85
2023-04-25T04:25:06.131Z,8.91
2023-04-25T04:26:06.132Z,8.88
2023-04-25T04:27:06.116Z,8.91
2023-04-25T04:28:06.105Z,8.95
2023-04-25T04:29:06.096Z,8.87
2023-04-25T04:30:06.093Z,8.94
2023-04-25T04:31:06.147Z,8.94
2023-04-25T04:32:06.064Z,8.92
2023-04-25T04:33:06.136Z,8.92
2023-04-25T04:34:06.052Z,8.87
2023-04-25T04:35:06.042Z,8.87
2023-04-25T04:36:06.034Z,8.91
2023-04-25T04:37:06.023Z,9.00
2023-04-25T04:38:06.013Z,8.91
2023-04-25T04:39:06.005Z,8.92
2023-04-25T04:40:06.008Z,8.95
2023-04-25T04:41:05.985Z,8.95
2023-04-25T04:42:05.982Z,8.97
2023-04-25T04:43:05.982Z,8.95
2023-04-25T04:44:07.136Z,8.95
2023-04-25T04:45:05.953Z,8.97
2023-04-25T04:46:05.957Z,8.99
2023-04-25T04:47:05.999Z,9.04
2023-04-25T04:48:05.953Z,8.95
2023-04-25T04:49:05.914Z,8.97
2023-04-25T04:50:05.910Z,9.03
2023-04-25T04:51:05.897Z,9.06
2023-04-25T04:52:05.929Z,9.04
2023-04-25T04:53:05.881Z,9.03
2023-04-25T04:54:05.882Z,9.02
2023-04-25T04:55:05.860Z,9.08
2023-04-25T04:56:05.848Z,9.04
2023-04-25T04:57:05.858Z,9.06
2023-04-25T04:58:05.841Z,9.10
2023-04-25T04:59:05.820Z,9.16
2023-04-25T05:00:05.816Z,9.14
2023-04-25T05:01:05.835Z,9.13
2023-04-25T05:02:05.793Z,9.10
2023-04-25T05:03:05.911Z,9.14
2023-04-25T05:04:05.915Z,9.10
2023-04-25T05:05:05.766Z,9.18
2023-04-25T05:06:05.757Z,9.25
2023-04-25T05:07:05.774Z,9.28
2023-04-25T05:08:05.743Z,9.28
2023-04-25T05:09:05.734Z,9.18
2023-04-25T05:10:05.720Z,9.21
2023-04-25T05:11:05.714Z,9.26
2023-04-25T05:12:05.715Z,9.22
2023-04-25T05:13:05.697Z,9.25
2023-04-25T05:14:05.687Z,9.19
2023-04-25T05:15:05.688Z,9.32
2023-04-25T05:16:05.697Z,9.32
2023-04-25T05:17:05.688Z,9.26
2023-04-25T05:18:05.681Z,9.34
2023-04-25T05:19:05.652Z,9.25
2023-04-25T05:20:05.630Z,9.25
2023-04-25T05:21:05.630Z,9.34
2023-04-25T05:22:05.614Z,9.28
2023-04-25T05:23:05.608Z,9.32
2023-04-25T05:24:05.596Z,9.28
2023-04-25T05:25:05.663Z,9.29
2023-04-25T05:26:05.574Z,9.25
2023-04-25T05:27:05.581Z,9.23
2023-04-25T05:28:05.571Z,9.32
2023-04-25T05:29:05.552Z,9.37
2023-04-25T05:30:05.540Z,9.37
2023-04-25T05:31:05.540Z,9.36
2023-04-25T05:32:05.609Z,9.36
2023-04-25T05:33:05.585Z,9.36
2023-04-25T05:34:05.511Z,9.34
2023-04-25T05:35:05.536Z,9.46
2023-04-25T05:36:05.516Z,9.44
2023-04-25T05:37:05.485Z,9.44
2023-04-25T05:38:05.487Z,9.34
2023-04-25T05:39:05.457Z,9.32
2023-04-25T05:40:05.521Z,9.39
2023-04-25T05:41:05.441Z,9.44
2023-04-25T05:42:05.431Z,9.25
2023-04-25T05:43:05.424Z,9.36
2023-04-25T05:44:05.414Z,9.26
2023-04-25T05:45:05.409Z,9.36
2023-04-25T05:46:05.425Z,9.47
2023-04-25T05:47:05.395Z,9.37
2023-04-25T05:48:05.446Z,9.48
2023-04-25T05:49:05.370Z,9.39
2023-04-25T05:50:05.362Z,9.31
2023-04-25T05:51:05.353Z,9.32
2023-04-25T05:52:05.336Z,9.32
2023-04-25T05:53:05.334Z,9.34
2023-04-25T05:54:05.320Z,9.34
2023-04-25T05:55:05.322Z,9.29
2023-04-25T05:56:05.306Z,9.34
2023-04-25T05:57:05.297Z,9.37
2023-04-25T05:58:05.288Z,9.48
2023-04-25T05:59:05.276Z,9.37
2023-04-25T06:00:05.272Z,9.47
2023-04-25T06:01:05.261Z,9.46
2023-04-25T06:02:05.269Z,9.48
2023-04-25T06:03:05.327Z,9.44
2023-04-25T06:04:05.568Z,9.51
2023-04-25T06:05:05.312Z,9.48
2023-04-25T06:06:05.240Z,9.54
2023-04-25T06:07:05.205Z,9.51
2023-04-25T06:08:05.203Z,9.51
2023-04-25T06:09:05.190Z,9.69
2023-04-25T06:10:05.186Z,9.62
2023-04-25T06:11:05.182Z,9.61
2023-04-25T06:12:05.166Z,9.59
2023-04-25T06:13:05.183Z,9.55
2023-04-25T06:14:05.152Z,9.58
2023-04-25T06:15:13.217Z,9.59
2023-04-25T06:16:05.169Z,9.56
2023-04-25T06:17:05.117Z,9.50
2023-04-25T06:18:05.160Z,9.54
2023-04-25T06:19:05.105Z,9.47
2023-04-25T06:20:06.922Z,9.47
2023-04-25T06:21:05.079Z,9.48
2023-04-25T06:22:05.075Z,9.40
2023-04-25T06:23:05.072Z,9.41
2023-04-25T06:24:05.077Z,9.43
2023-04-25T06:25:05.073Z,9.40
2023-04-25T06:26:05.065Z,9.40
2023-04-25T06:27:05.107Z,9.46
2023-04-25T06:28:05.074Z,9.40
2023-04-25T06:29:05.080Z,9.36
2023-04-25T06:30:05.001Z,9.39
2023-04-25T06:31:05.031Z,9.44
2023-04-25T06:32:04.985Z,9.43
2023-04-25T06:33:05.005Z,9.39
2023-04-25T06:34:05.007Z,9.41
2023-04-25T06:35:04.966Z,9.39
2023-04-25T06:36:04.958Z,9.37
2023-04-25T06:37:04.946Z,9.44
2023-04-25T06:38:04.934Z,9.44
2023-04-25T06:39:04.925Z,9.47
2023-04-25T06:40:04.961Z,9.36
2023-04-25T06:41:04.910Z,9.47
2023-04-25T06:42:04.900Z,9.40
2023-04-25T06:43:04.887Z,9.40
2023-04-25T06:44:04.880Z,9.41
2023-04-25T06:45:04.928Z,9.46
2023-04-25T06:46:04.863Z,9.54
2023-04-25T06:47:04.866Z,9.46
2023-04-25T06:48:04.899Z,9.51
2023-04-25T06:49:04.844Z,9.47
2023-04-25T06:50:04.828Z,9.56
2023-04-25T06:51:04.825Z,9.46
2023-04-25T06:52:04.812Z,9.47
2023-04-25T06:53:04.801Z,9.47
2023-04-25T06:54:04.794Z,9.36
2023-04-25T06:55:04.784Z,9.34
2023-04-25T06:56:04.777Z,9.29
2023-04-25T06:57:04.765Z,9.13
2023-04-25T06:58:04.761Z,9.18
2023-04-25T06:59:04.776Z,9.22
2023-04-25T07:00:04.739Z,9.16
2023-04-25T07:01:04.779Z,9.16
2023-04-25T07:02:04.733Z,9.21
2023-04-25T07:03:04.802Z,9.14
2023-04-25T07:04:04.840Z,9.26
2023-04-25T07:05:04.693Z,9.25
2023-04-25T07:06:04.686Z,9.08
2023-04-25T07:07:04.680Z,9.18
2023-04-25T07:08:04.668Z,9.11
2023-04-25T07:09:04.660Z,9.08
2023-04-25T07:10:04.650Z,9.11
2023-04-25T07:11:04.650Z,9.19
2023-04-25T07:12:04.647Z,9.16
2023-04-25T07:13:04.624Z,9.28
2023-04-25T07:14:04.621Z,9.32
2023-04-25T07:15:04.607Z,9.29
2023-04-25T07:16:04.614Z,9.40
2023-04-25T07:17:04.591Z,9.31
2023-04-25T07:18:04.641Z,9.32
2023-04-25T07:19:04.569Z,9.41
2023-04-25T07:20:04.566Z,9.43
2023-04-25T07:21:04.564Z,9.40
2023-04-25T07:22:04.544Z,9.46
2023-04-25T07:23:04.539Z,9.62
2023-04-25T07:24:04.526Z,9.56
2023-04-25T07:25:04.520Z,9.56
2023-04-25T07:26:04.514Z,9.58
2023-04-25T07:27:04.500Z,9.46
2023-04-25T07:28:04.498Z,9.39
2023-04-25T07:29:04.487Z,9.46
2023-04-25T07:30:04.475Z,9.48
2023-04-25T07:31:04.473Z,9.56
2023-04-25T07:32:04.500Z,9.41
2023-04-25T07:33:04.500Z,9.46
2023-04-25T07:34:04.442Z,9.37
2023-04-25T07:35:04.638Z,9.43
2023-04-25T07:36:04.422Z,9.41
2023-04-25T07:37:04.432Z,9.47
2023-04-25T07:38:04.401Z,9.43
2023-04-25T07:39:04.391Z,9.47
2023-04-25T07:40:04.414Z,9.50
2023-04-25T07:41:04.380Z,9.58
2023-04-25T07:42:04.386Z,9.44
2023-04-25T07:43:04.354Z,9.58
2023-04-25T07:44:04.349Z,9.48
2023-04-25T07:45:04.348Z,9.54
2023-04-25T07:46:04.357Z,9.50
2023-04-25T07:47:04.625Z,9.55
2023-04-25T07:48:04.332Z,9.68
2023-04-25T07:49:04.304Z,9.62
2023-04-25T07:50:04.293Z,9.73
2023-04-25T07:51:04.284Z,9.74
2023-04-25T07:52:04.289Z,9.84
2023-04-25T07:53:04.279Z,9.92
2023-04-25T07:54:04.274Z,10.05
2023-04-25T07:55:04.251Z,10.16
2023-04-25T07:56:04.242Z,10.23
2023-04-25T07:57:04.227Z,10.22
2023-04-25T07:58:04.227Z,10.38
2023-04-25T07:59:04.218Z,10.38
2023-04-25T08:00:04.209Z,10.44
2023-04-25T08:01:04.204Z,10.56
2023-04-25T08:02:04.203Z,10.67
2023-04-25T08:03:04.332Z,10.79
2023-04-25T08:04:04.320Z,10.75
2023-04-25T08:05:04.272Z,10.64
2023-04-25T08:06:07.019Z,10.79
2023-04-25T08:07:04.147Z,10.78
2023-04-25T08:08:04.139Z,10.75
2023-04-25T08:09:04.130Z,10.59
2023-04-25T08:10:04.122Z,10.49
2023-04-25T08:11:04.119Z,10.42
2023-04-25T08:12:04.114Z,10.49
2023-04-25T08:13:04.111Z,10.51
2023-04-25T08:14:04.114Z,10.59
2023-04-25T08:15:04.086Z,10.56
2023-04-25T08:16:04.118Z,10.60
2023-04-25T08:17:04.068Z,10.56
2023-04-25T08:18:04.088Z,10.61
2023-04-25T08:19:04.050Z,10.64
2023-04-25T08:20:04.079Z,10.75
2023-04-25T08:21:04.033Z,10.72
2023-04-25T08:22:04.034Z,10.84
2023-04-25T08:23:04.019Z,10.82
2023-04-25T08:24:04.017Z,10.76
2023-04-25T08:25:04.037Z,10.72
2023-04-25T08:26:03.991Z,10.75
2023-04-25T08:27:03.979Z,10.48
2023-04-25T08:28:03.987Z,10.49
2023-04-25T08:29:03.968Z,10.44
2023-04-25T08:30:03.959Z,10.48
2023-04-25T08:31:03.971Z,10.46
2023-04-25T08:32:03.983Z,10.44
2023-04-25T08:33:03.973Z,10.49
2023-04-25T08:34:03.927Z,10.35
2023-04-25T08:35:03.934Z,10.35
2023-04-25T08:36:03.914Z,10.42
2023-04-25T08:37:03.955Z,10.56
2023-04-25T08:38:03.957Z,10.78
2023-04-25T08:39:03.888Z,10.90
2023-04-25T08:40:03.879Z,11.08
2023-04-25T08:41:03.882Z,11.35
2023-04-25T08:42:03.864Z,11.33
2023-04-25T08:43:03.857Z,11.36
2023-04-25T08:44:03.857Z,11.30
2023-04-25T08:45:06.625Z,11.26
2023-04-25T08:46:03.830Z,11.26
2023-04-25T08:47:03.926Z,11.15
2023-04-25T08:48:03.899Z,11.11
2023-04-25T08:49:03.805Z,11.00
2023-04-25T08:50:03.795Z,10.92
2023-04-25T08:51:03.789Z,11.02
2023-04-25T08:52:03.784Z,11.29
2023-04-25T08:53:03.944Z,11.14
2023-04-25T08:54:09.025Z,11.29
2023-04-25T08:55:03.773Z,11.18
2023-04-25T08:56:03.748Z,11.19
2023-04-25T08:57:03.749Z,11.32
2023-04-25T08:58:03.728Z,11.45
2023-04-25T08:59:03.730Z,11.60
2023-04-25T09:00:03.724Z,11.66
2023-04-25T09:01:03.739Z,11.73
2023-04-25T09:02:03.915Z,11.83
2023-04-25T09:03:03.823Z,11.77
2023-04-25T09:04:03.812Z,11.66
2023-04-25T09:05:03.688Z,11.57
2023-04-25T09:06:03.670Z,11.30
2023-04-25T09:07:03.689Z,11.27
2023-04-25T09:08:03.674Z,11.27
2023-04-25T09:09:03.646Z,11.36
2023-04-25T09:10:03.637Z,11.23
2023-04-25T09:11:03.628Z,11.43
2023-04-25T09:12:03.621Z,11.45
2023-04-25T09:13:03.613Z,11.63
2023-04-25T09:14:03.603Z,11.59
2023-04-25T09:15:03.600Z,11.55
2023-04-25T09:16:03.648Z,11.55
2023-04-25T09:17:03.787Z,11.55
2023-04-25T09:18:03.665Z,11.35
2023-04-25T09:19:03.571Z,11.40
2023-04-25T09:20:03.558Z,11.51
2023-04-25T09:21:09.814Z,11.48
2023-04-25T09:22:03.541Z,11.63
2023-04-25T09:23:03.536Z,11.50
2023-04-25T09:24:03.535Z,11.52
2023-04-25T09:25:03.520Z,11.75
2023-04-25T09:26:03.520Z,11.86
2023-04-25T09:27:03.505Z,11.99
2023-04-25T09:28:03.500Z,12.20
2023-04-25T09:29:03.504Z,12.40
2023-04-25T09:30:03.481Z,12.32
2023-04-25T09:31:03.480Z,12.37
2023-04-25T09:32:03.529Z,12.49
2023-04-25T09:33:03.495Z,12.47
2023-04-25T09:34:03.650Z,12.53
2023-04-25T09:35:03.444Z,12.54
2023-04-25T09:36:03.436Z,12.29
2023-04-25T09:37:03.435Z,12.09
2023-04-25T09:38:03.469Z,12.13
2023-04-25T09:39:03.430Z,11.99
2023-04-25T09:40:03.427Z,11.97
2023-04-25T09:41:03.403Z,11.77
2023-04-25T09:42:03.396Z,11.83
2023-04-25T09:43:03.388Z,11.90
2023-04-25T09:44:03.961Z,11.94
2023-04-25T09:45:03.397Z,11.99
2023-04-25T09:46:03.373Z,12.15
2023-04-25T09:47:03.355Z,12.20
2023-04-25T09:48:03.424Z,12.24
2023-04-25T09:49:03.341Z,12.40
2023-04-25T09:50:03.333Z,12.47
2023-04-25T09:51:03.331Z,12.55
2023-04-25T09:52:03.984Z,12.49
2023-04-25T09:53:03.315Z,12.50
2023-04-25T09:54:03.314Z,12.50
2023-04-25T09:55:03.314Z,12.22
2023-04-25T09:56:03.291Z,12.10
2023-04-25T09:57:03.285Z,12.17
2023-04-25T09:58:03.293Z,12.09
2023-04-25T09:59:03.276Z,11.95
2023-04-25T10:00:03.268Z,11.87
2023-04-25T10:01:03.365Z,11.77
2023-04-25T10:02:03.257Z,11.73
2023-04-25T10:03:03.334Z,11.94
2023-04-25T10:04:03.830Z,12.04
2023-04-25T10:05:03.275Z,12.28
2023-04-25T10:06:03.233Z,12.32
2023-04-25T10:07:03.210Z,12.47
2023-04-25T10:08:03.206Z,12.64
2023-04-25T10:09:03.200Z,12.65
2023-04-25T10:10:03.202Z,12.72
2023-04-25T10:11:03.211Z,12.68
2023-04-25T10:12:03.175Z,12.57
2023-04-25T10:13:03.171Z,12.46
2023-04-25T10:14:03.183Z,12.36
2023-04-25T10:15:03.157Z,12.42
2023-04-25T10:16:03.189Z,12.25
2023-04-25T10:17:03.151Z,12.20
2023-04-25T10:18:03.168Z,12.07
2023-04-25T10:19:03.130Z,12.13
2023-04-25T10:20:03.124Z,12.03
2023-04-25T10:21:03.128Z,11.94
2023-04-25T10:22:03.111Z,11.83
2023-04-25T10:23:03.100Z,11.68
2023-04-25T10:24:03.093Z,11.83
2023-04-25T10:25:03.082Z,11.83
2023-04-25T10:26:03.080Z,11.86
2023-04-25T10:27:03.169Z,11.95
2023-04-25T10:28:03.087Z,12.04
2023-04-25T10:29:03.085Z,11.95
2023-04-25T10:30:03.067Z,11.90
2023-04-25T10:31:03.070Z,12.07
2023-04-25T10:32:03.088Z,12.21
2023-04-25T10:33:03.045Z,12.43
2023-04-25T10:34:03.049Z,12.45
2023-04-25T10:35:03.014Z,12.43
2023-04-25T10:36:03.007Z,12.42
2023-04-25T10:37:03.002Z,12.50
2023-04-25T10:38:02.994Z,12.55
2023-04-25T10:39:02.997Z,12.47
2023-04-25T10:40:02.984Z,12.46
2023-04-25T10:41:02.972Z,12.46
2023-04-25T10:42:02.966Z,12.57
2023-04-25T10:43:02.953Z,12.53
2023-04-25T10:44:02.958Z,12.73
2023-04-25T10:45:02.988Z,12.75
2023-04-25T10:46:02.955Z,12.79
2023-04-25T10:47:03.045Z,12.78
2023-04-25T10:48:03.022Z,12.67
2023-04-25T10:49:02.922Z,12.64
2023-04-25T10:50:02.904Z,12.64
2023-04-25T10:51:02.903Z,12.76
2023-04-25T10:52:02.899Z,12.70
2023-04-25T10:53:02.896Z,12.49
2023-04-25T10:54:02.885Z,12.46
2023-04-25T10:55:02.873Z,12.39
2023-04-25T10:56:02.867Z,12.42
2023-04-25T10:57:02.864Z,12.47
2023-04-25T10:58:02.874Z,12.31
2023-04-25T10:59:02.853Z,12.07
2023-04-25T11:00:02.845Z,11.81
2023-04-25T11:01:02.934Z,11.57
2023-04-25T11:02:02.873Z,11.51
2023-04-25T11:03:02.925Z,11.29
2023-04-25T11:04:03.032Z,11.10
2023-04-25T11:05:02.811Z,10.97
2023-04-25T11:06:02.795Z,10.72
2023-04-25T11:07:06.378Z,10.63
2023-04-25T11:08:07.605Z,10.60
2023-04-25T11:09:02.783Z,10.40
2023-04-25T11:10:02.776Z,10.41
2023-04-25T11:11:02.759Z,10.57
2023-04-25T11:12:02.763Z,10.69
2023-04-25T11:13:02.762Z,10.72
2023-04-25T11:14:02.739Z,10.74
2023-04-25T11:15:02.727Z,10.75
2023-04-25T11:16:12.191Z,10.89
2023-04-25T11:17:02.760Z,10.87
2023-04-25T11:18:02.772Z,10.94
2023-04-25T11:19:02.696Z,10.96
2023-04-25T11:20:02.689Z,10.94
2023-04-25T11:21:02.682Z,10.92
2023-04-25T11:22:02.672Z,11.04
2023-04-25T11:24:02.657Z,11.29
2023-04-25T11:25:02.660Z,11.45
2023-04-25T11:26:02.645Z,11.43
2023-04-25T11:27:02.643Z,11.65
2023-04-25T11:28:02.625Z,11.66
2023-04-25T11:29:02.620Z,11.69
2023-04-25T11:30:02.612Z,11.80
2023-04-25T11:31:02.605Z,11.87
2023-04-25T11:32:02.724Z,11.88
2023-04-25T11:33:02.648Z,11.80
2023-04-25T11:34:02.652Z,11.77
2023-04-25T11:35:02.611Z,11.73
2023-04-25T11:36:02.572Z,11.66
2023-04-25T11:37:02.574Z,11.78
2023-04-25T11:38:02.547Z,11.78
2023-04-25T11:39:02.551Z,11.73
2023-04-25T11:40:02.541Z,11.70
2023-04-25T11:41:02.748Z,11.62
2023-04-25T11:42:14.017Z,11.59
2023-04-25T11:43:02.520Z,11.68
2023-04-25T11:44:02.508Z,11.72
2023-04-25T11:45:02.502Z,11.73
2023-04-25T11:46:02.568Z,11.72
2023-04-25T11:47:02.479Z,11.63
2023-04-25T11:48:02.588Z,11.75
2023-04-25T11:49:02.475Z,11.70
2023-04-25T11:50:02.498Z,11.57
2023-04-25T11:51:02.462Z,11.57
2023-04-25T11:52:02.454Z,11.70
2023-04-25T11:53:02.444Z,11.62
2023-04-25T11:54:02.433Z,11.63
2023-04-25T11:55:02.426Z,11.62
2023-04-25T11:56:02.422Z,11.63
2023-04-25T11:57:02.409Z,11.62
2023-04-25T11:58:02.401Z,11.45
2023-04-25T11:59:02.441Z,11.48
2023-04-25T12:00:02.385Z,11.30
2023-04-25T12:01:02.381Z,11.30
2023-04-25T12:02:02.370Z,11.36
2023-04-25T12:03:02.459Z,11.43
2023-04-25T12:04:02.584Z,11.45
2023-04-25T12:05:12.066Z,11.32
2023-04-25T12:06:02.621Z,11.30
2023-04-25T12:07:02.358Z,11.41
2023-04-25T12:08:02.324Z,11.27
2023-04-25T12:09:02.336Z,11.29
2023-04-25T12:10:02.432Z,11.44
2023-04-25T12:11:02.303Z,11.33
2023-04-25T12:12:02.310Z,11.40
2023-04-25T12:13:02.312Z,11.50
2023-04-25T12:14:02.291Z,11.65
2023-04-25T12:15:02.292Z,11.68
2023-04-25T12:16:02.301Z,11.68
2023-04-25T12:17:02.256Z,11.59
2023-04-25T12:18:02.276Z,11.81
2023-04-25T12:19:02.240Z,11.81
2023-04-25T12:20:02.230Z,11.87
2023-04-25T12:21:02.242Z,12.03
2023-04-25T12:22:02.215Z,12.09
2023-04-25T12:23:02.208Z,12.09
2023-04-25T12:24:02.213Z,12.06
2023-04-25T12:25:02.197Z,12.13
2023-04-25T12:26:02.184Z,12.12
2023-04-25T12:27:02.192Z,12.20
2023-04-25T12:28:02.178Z,12.12
2023-04-25T12:29:02.167Z,12.15
2023-04-25T12:30:02.154Z,12.02
2023-04-25T12:31:02.232Z,11.95
2023-04-25T12:32:02.141Z,11.77
2023-04-25T12:33:02.193Z,11.83
2023-04-25T12:34:02.147Z,11.78
2023-04-25T12:35:02.128Z,11.81
2023-04-25T12:36:03.353Z,11.78
2023-04-25T12:37:02.112Z,11.84
2023-04-25T12:38:02.097Z,11.77
2023-04-25T12:39:02.087Z,11.84
2023-04-25T12:40:02.131Z,11.86
2023-04-25T12:41:02.085Z,11.87
2023-04-25T12:42:02.070Z,11.90
2023-04-25T12:43:02.052Z,11.99
2023-04-25T12:44:02.056Z,11.87
2023-04-25T12:45:02.047Z,11.86
2023-04-25T12:46:02.038Z,11.83
2023-04-25T12:47:02.130Z,11.75
2023-04-25T12:48:04.062Z,11.77
2023-04-25T12:49:11.685Z,11.84
2023-04-25T12:50:02.018Z,11.83
2023-04-25T12:51:02.000Z,11.81
2023-04-25T12:52:01.991Z,11.78
2023-04-25T12:53:01.994Z,11.88
2023-04-25T12:54:01.981Z,11.86
2023-04-25T12:55:01.972Z,11.86
2023-04-25T12:56:01.988Z,11.87
2023-04-25T12:57:01.955Z,11.83
2023-04-25T12:58:01.958Z,11.84
2023-04-25T12:59:01.951Z,11.87
2023-04-25T13:00:01.938Z,11.88
2023-04-25T13:01:02.122Z,12.02
2023-04-25T13:02:01.971Z,12.13
2023-04-25T13:03:02.061Z,12.21
2023-04-25T13:04:02.019Z,12.36
2023-04-25T13:05:01.895Z,12.47
2023-04-25T13:06:01.889Z,12.64
2023-04-25T13:07:01.888Z,12.68
2023-04-25T13:08:01.876Z,12.70